Main page
METAR-TAF:

METAR-TAF

Airports :

Kota Airport

Kota, India

latitude: 25-09-36N, longitude: 075-50-44E, elevation: 273 m

Current weather observation

The report was made 3 hours and 18 minutes ago, at 00:00 UTC
Calm wind
Temperature 18°C
Humidity 77%
Pressure 1012 hPa

METAR: VIKO 010000Z 00000KT 60000 NSC 18/14 Q1012

Time: 08:48 (03:18 UTC)

Forecast

The report was made 4 hours and 18 minutes ago, at 23:00 UTC
Forecast valid from 01 at 00 UTC to 01 at 09 UTC
Wind 3 kt from variable directions
Visibility: 2000 m
haze
Becoming
from 01 at 04 UTC to 01 at 06 UTC
Wind 3 kt from variable directions
Visibility: 3000 m
haze
Becoming
from 01 at 07 UTC to 01 at 09 UTC
Wind 7 kt from the West/Northwest
Visibility: 5000 m
haze

TAF: VIKO 282300Z 0100/0109 VRB03KT 2000 HZ NSC BECMG 0104/0106 VRB03KT 3000 HZ BECMG 0107/0109 29007KT 5000 HZ

Weather observations and forecasts of more than 4000 airports (METAR and TAF reports).

The available stations are represented by yellow and red dots on the map.

Hover mouse over dot to see the name of the station.

Then click to see weather observations and forecasts.

To change the map : click on the green buttons with a black cross to zoom in, on the green button with a dash to zoom out, or on the green arrows for adjacent maps.


METAR-TAF: